Time;durP1;ratioP1;P1;durP2;ratioP2;P2;SDS_P1;SDS_P2;PMS_P1;PMS_P2;Temp;Humidity;BMP_temperature;BMP_pressure;BME280_temperature;BME280_humidity;BME280_pressure;Samples;Min_cycle;Max_cycle;Signal;HPM_P1;HPM_P2
2022/07/31 00:02:00;;;;;;;12.68;4.37;;;;;;;16.17;100.00;101024.08;1556507;92;21125;-83
2022/07/31 00:04:27;;;;;;;13.53;4.67;;;;;;;16.13;100.00;101012.17;1556411;92;20945;-83
2022/07/31 00:06:53;;;;;;;9.43;4.58;;;;;;;16.16;100.00;101019.75;1550337;92;21606;-83
2022/07/31 00:09:19;;;;;;;9.58;4.50;;;;;;;16.11;100.00;101013.80;1549706;92;21073;-83
2022/07/31 00:11:45;;;;;;;15.95;4.92;;;;;;;15.96;100.00;101005.80;1549522;92;21125;-82
2022/07/31 00:14:12;;;;;;;22.48;5.58;;;;;;;16.05;100.00;101027.19;1549744;92;21582;-83
2022/07/31 00:16:38;;;;;;;14.60;4.62;;;;;;;16.05;100.00;101027.19;1549458;92;21046;-83
2022/07/31 00:19:04;;;;;;;12.60;4.95;;;;;;;15.99;100.00;101020.17;1549651;92;21149;-83
2022/07/31 00:21:30;;;;;;;12.35;4.40;;;;;;;15.86;100.00;101002.63;1549418;92;21153;-83
2022/07/31 00:23:56;;;;;;;10.63;4.62;;;;;;;15.84;100.00;100993.13;1546438;92;21626;-83
2022/07/31 00:26:22;;;;;;;11.22;5.20;;;;;;;15.97;100.00;101007.95;1549466;92;21096;-82
2022/07/31 00:28:48;;;;;;;16.30;4.70;;;;;;;15.94;100.00;101007.17;1549775;92;20933;-82
2022/07/31 00:31:14;;;;;;;20.88;5.67;;;;;;;15.94;100.00;101000.38;1529569;92;21120;-83
2022/07/31 00:33:41;;;;;;;19.02;5.53;;;;;;;15.94;100.00;101000.38;1549374;92;21113;-83
2022/07/31 00:36:07;;;;;;;10.32;5.17;;;;;;;15.96;100.00;100995.47;1549365;91;21069;-83
2022/07/31 00:38:33;;;;;;;15.80;5.55;;;;;;;15.95;100.00;100995.22;1549641;92;21164;-83
2022/07/31 00:40:59;;;;;;;16.27;5.35;;;;;;;15.94;100.00;100992.22;1549528;91;20945;-83
2022/07/31 00:43:25;;;;;;;10.43;5.17;;;;;;;15.95;100.00;100991.14;1549708;92;21107;-83
2022/07/31 00:45:52;;;;;;;12.15;5.47;;;;;;;15.94;100.00;100996.30;1549502;92;20922;-83
2022/07/31 00:48:18;;;;;;;16.20;5.85;;;;;;;15.92;100.00;100988.45;1549228;92;21538;-83
2022/07/31 00:50:44;;;;;;;12.28;5.33;;;;;;;15.89;100.00;100988.47;1549667;92;21186;-83
2022/07/31 00:53:11;;;;;;;18.25;5.22;;;;;;;15.89;100.00;100987.66;1549342;92;21049;-83
2022/07/31 00:55:37;;;;;;;15.28;5.28;;;;;;;15.92;100.00;100978.12;1549802;92;21042;-82
2022/07/31 00:58:03;;;;;;;14.07;5.15;;;;;;;15.92;100.00;100979.48;1529932;92;21065;-83
2022/07/31 01:00:30;;;;;;;11.78;4.65;;;;;;;15.92;100.00;100982.20;1549580;92;21585;-83
2022/07/31 01:02:56;;;;;;;16.00;4.72;;;;;;;15.78;100.00;100954.31;1549815;91;21845;-83
2022/07/31 01:05:22;;;;;;;23.50;5.20;;;;;;;15.78;100.00;100954.31;1549797;91;21062;-82
2022/07/31 01:07:48;;;;;;;18.82;5.83;;;;;;;15.88;100.00;100971.91;1549653;92;21129;-83
2022/07/31 01:10:20;;;;;;;15.83;4.90;;;;;;;15.86;100.00;100975.45;1549782;92;21070;-83
2022/07/31 01:12:56;;;;;;;16.12;5.20;;;;;;;15.82;100.00;100970.30;1544647;92;21053;-83
2022/07/31 01:15:24;;;;;;;17.40;5.75;;;;;;;15.82;100.00;100964.06;1547909;92;21182;-83
2022/07/31 01:17:52;;;;;;;14.58;5.22;;;;;;;15.78;100.00;100969.81;1530253;92;21625;-83
2022/07/31 01:20:19;;;;;;;15.98;6.05;;;;;;;15.74;100.00;100973.66;1549773;92;21094;-83
2022/07/31 01:23:16;;;;;;;14.63;5.03;;;;;;;15.73;100.00;100976.09;1549712;92;20970;-83
2022/07/31 01:26:18;;;;;;;10.45;5.33;;;;;;;15.65;100.00;100972.63;1549754;92;21081;-83
2022/07/31 01:28:58;;;;;;;11.15;4.78;;;;;;;15.59;100.00;100970.49;1550074;92;21215;-83
2022/07/31 01:31:33;;;;;;;15.05;5.33;;;;;;;15.60;100.00;100966.67;1549689;92;21066;-83
2022/07/31 01:34:04;;;;;;;18.57;5.37;;;;;;;15.57;100.00;100967.79;1496965;94;21121;-83
2022/07/31 01:36:35;;;;;;;13.38;4.75;;;;;;;15.55;100.00;100965.89;1496913;95;21189;-83
2022/07/31 01:39:04;;;;;;;13.40;5.08;;;;;;;15.57;100.00;100963.72;1497085;95;21739;-84
2022/07/31 01:41:35;;;;;;;14.30;5.65;;;;;;;15.55;100.00;100955.84;1497413;95;21931;-83
2022/07/31 01:44:04;;;;;;;12.30;4.47;;;;;;;15.55;100.00;100955.84;1497360;95;21567;-83
2022/07/31 01:46:34;;;;;;;13.35;5.47;;;;;;;15.55;100.00;100963.18;1496970;95;21573;-83
2022/07/31 01:49:01;;;;;;;13.88;5.12;;;;;;;15.55;100.00;100968.61;1497159;95;21154;-84
2022/07/31 01:51:29;;;;;;;10.65;5.00;;;;;;;15.52;100.00;100965.91;1496926;95;21079;-83
2022/07/31 01:53:57;;;;;;;15.72;5.28;;;;;;;15.49;100.00;100965.67;1497201;95;21196;-83
2022/07/31 01:56:26;;;;;;;14.33;5.12;;;;;;;15.46;100.00;100965.69;1497023;95;21174;-83
2022/07/31 01:58:54;;;;;;;11.55;4.60;;;;;;;15.28;100.00;100942.73;1496962;94;21078;-83
2022/07/31 02:01:21;;;;;;;19.17;5.08;;;;;;;15.28;100.00;100942.73;1496984;95;21654;-83
2022/07/31 02:03:49;;;;;;;12.73;5.42;;;;;;;15.32;100.00;100966.06;1497065;95;21081;-83
2022/07/31 02:06:18;;;;;;;14.73;5.05;;;;;;;15.29;100.00;100965.27;1492746;95;21121;-84
2022/07/31 02:08:50;;;;;;;12.35;5.28;;;;;;;15.29;100.00;100968.79;1485485;95;21072;-83
2022/07/31 02:11:22;;;;;;;26.40;5.70;;;;;;;15.24;100.00;100965.33;1485462;96;21095;-84
2022/07/31 02:13:49;;;;;;;15.80;5.60;;;;;;;15.22;100.00;100955.54;1485580;96;21127;-83
2022/07/31 02:16:18;;;;;;;11.18;5.33;;;;;;;15.26;100.00;100957.69;1467713;96;21072;-83
2022/07/31 02:18:48;;;;;;;13.10;5.65;;;;;;;15.27;100.00;100961.49;1485576;96;21186;-83
2022/07/31 02:21:15;;;;;;;18.12;5.72;;;;;;;15.28;100.00;100963.66;1485670;96;20940;-82
2022/07/31 02:23:42;;;;;;;14.33;5.78;;;;;;;15.28;100.00;100965.02;1503291;93;21144;-83
2022/07/31 02:26:09;;;;;;;14.87;5.17;;;;;;;15.26;100.00;100961.20;1539275;93;21058;-83
2022/07/31 02:28:39;;;;;;;15.50;5.62;;;;;;;15.27;100.00;100963.41;1539534;93;21129;-83
2022/07/31 02:31:10;;;;;;;14.93;6.33;;;;;;;15.24;100.00;100971.56;1539072;93;21118;-83
2022/07/31 02:33:38;;;;;;;9.65;4.80;;;;;;;15.21;100.00;100969.41;1539106;93;21046;-83
2022/07/31 02:36:07;;;;;;;10.08;5.12;;;;;;;15.21;100.00;100966.14;1539107;93;21050;-83
2022/07/31 02:38:36;;;;;;;15.23;5.55;;;;;;;15.25;100.00;100963.67;1539133;93;21574;-83
2022/07/31 02:41:07;;;;;;;14.47;5.90;;;;;;;15.27;100.00;100960.13;1499388;95;21169;-83
2022/07/31 02:43:35;;;;;;;15.48;6.22;;;;;;;15.36;100.00;100957.08;1496680;95;21195;-83
2022/07/31 02:46:11;;;;;;;11.57;5.67;;;;;;;15.45;100.00;100962.72;1500363;94;21130;-83
2022/07/31 02:48:46;;;;;;;13.58;5.87;;;;;;;15.55;100.00;100957.75;1496571;94;21147;-83
2022/07/31 02:51:12;;;;;;;10.80;5.78;;;;;;;15.62;100.00;100952.81;1490945;96;21176;-83
2022/07/31 02:53:39;;;;;;;12.78;6.37;;;;;;;15.80;100.00;100949.41;1491778;96;21142;-83
2022/07/31 02:56:08;;;;;;;14.50;6.45;;;;;;;15.80;100.00;100949.41;1491446;96;21344;-84
2022/07/31 02:58:43;;;;;;;17.85;7.75;;;;;;;16.04;100.00;100956.80;1491099;96;21162;-83
2022/07/31 03:01:13;;;;;;;18.65;7.78;;;;;;;16.04;100.00;100956.80;1491369;96;21176;-83
2022/07/31 03:03:39;;;;;;;18.87;7.83;;;;;;;16.19;100.00;100957.19;1491136;94;21153;-83
2022/07/31 03:06:06;;;;;;;14.50;7.40;;;;;;;16.30;100.00;100958.70;1490613;93;21215;-83
2022/07/31 03:08:37;;;;;;;18.95;8.05;;;;;;;16.41;100.00;100954.74;1487844;95;21590;-83
2022/07/31 03:11:03;;;;;;;20.65;7.05;;;;;;;16.52;100.00;100955.44;1487222;95;21102;-84
2022/07/31 03:13:31;;;;;;;23.27;8.48;;;;;;;16.63;100.00;100954.78;1487933;94;21093;-83
2022/07/31 03:16:01;;;;;;;21.75;8.75;;;;;;;16.78;100.00;100951.88;1487808;95;21118;-84
2022/07/31 03:18:28;;;;;;;21.40;8.45;;;;;;;16.92;100.00;100948.70;1487157;95;21186;-84
2022/07/31 03:20:55;;;;;;;19.62;8.03;;;;;;;17.10;100.00;100951.72;1502241;94;21283;-84
2022/07/31 03:23:25;;;;;;;20.82;8.18;;;;;;;17.19;100.00;100952.67;1512020;93;21094;-84
2022/07/31 03:25:52;;;;;;;17.80;7.47;;;;;;;17.31;100.00;100956.31;1511402;93;21078;-84
2022/07/31 03:28:20;;;;;;;24.72;11.38;;;;;;;17.49;100.00;100950.82;1511265;94;21121;-84
2022/07/31 03:30:56;;;;;;;27.80;12.80;;;;;;;17.85;100.00;100955.72;1511442;93;21133;-84
2022/07/31 03:33:25;;;;;;;23.77;11.18;;;;;;;18.03;100.00;100952.67;1511257;92;21102;-84
2022/07/31 03:35:53;;;;;;;19.27;8.20;;;;;;;18.34;100.00;100955.61;1511572;93;21149;-84
2022/07/31 03:38:21;;;;;;;13.30;5.70;;;;;;;18.80;100.00;100947.07;1564033;90;21056;-84
2022/07/31 03:40:48;;;;;;;10.88;4.70;;;;;;;18.96;100.00;100948.33;1591530;90;21195;-87
2022/07/31 03:43:16;;;;;;;12.23;4.78;;;;;;;19.15;100.00;100948.73;1591574;90;21048;-89
2022/07/31 03:45:44;;;;;;;11.05;4.12;;;;;;;19.43;100.00;100943.98;1592142;89;21076;-88
2022/07/31 03:48:11;;;;;;;11.48;4.87;;;;;;;19.93;100.00;100939.16;1615492;87;21008;-91
2022/07/31 03:50:39;;;;;;;11.95;3.90;;;;;;;20.64;100.00;100939.67;1631429;87;21628;-89
2022/07/31 03:53:07;;;;;;;11.38;3.98;;;;;;;21.65;100.00;100939.53;1619906;87;21554;-85
2022/07/31 03:58:09;;;;;;;11.08;3.95;;;;;;;23.58;100.00;100933.39;1577070;90;21185;-84
2022/07/31 04:00:35;;;;;;;10.85;4.15;;;;;;;24.52;100.00;100934.58;1577441;91;21510;-84
2022/07/31 04:03:09;;;;;;;13.28;3.52;;;;;;;25.06;100.00;100928.70;1557429;91;21125;-85
2022/07/31 04:05:39;;;;;;;6.90;3.42;;;;;;;25.59;98.65;100924.72;1577431;91;21224;-83
2022/07/31 04:08:07;;;;;;;8.13;3.95;;;;;;;26.16;94.41;100925.39;1584071;89;21717;-85
2022/07/31 04:10:35;;;;;;;11.33;4.15;;;;;;;26.73;90.63;100908.75;1584195;90;21218;-85
2022/07/31 04:13:07;;;;;;;9.75;3.92;;;;;;;27.63;82.49;100931.32;1522407;93;21076;-87
2022/07/31 04:15:33;;;;;;;9.30;3.50;;;;;;;28.13;78.56;100932.20;1469903;96;21110;-88
2022/07/31 04:18:00;;;;;;;10.55;4.28;;;;;;;28.47;71.02;100924.85;1502503;94;21634;-89
2022/07/31 04:20:27;;;;;;;9.43;3.95;;;;;;;28.63;68.05;100928.83;1504075;95;21075;-88
2022/07/31 04:23:03;;;;;;;8.03;3.83;;;;;;;28.78;64.50;100927.64;1504111;95;21370;-89
2022/07/31 04:25:29;;;;;;;7.30;3.55;;;;;;;28.93;62.47;100920.50;1494731;94;21138;-86
2022/07/31 04:30:24;;;;;;;6.60;2.95;;;;;;;29.68;59.57;100921.99;1493306;96;21099;-87
2022/07/31 04:32:51;;;;;;;5.92;2.95;;;;;;;30.31;57.67;100919.53;1479001;97;21052;-86
2022/07/31 04:35:17;;;;;;;6.67;3.17;;;;;;;30.78;54.34;100920.63;1478740;95;21328;-84
2022/07/31 04:37:43;;;;;;;7.33;2.98;;;;;;;30.90;52.22;100920.88;1479087;95;21184;-85
2022/07/31 04:40:14;;;;;;;6.45;2.62;;;;;;;30.49;50.70;100914.09;1479085;97;21090;-85
2022/07/31 04:42:41;;;;;;;8.83;2.95;;;;;;;30.44;51.11;100921.40;1412597;100;21213;-86
2022/07/31 04:45:10;;;;;;;4.60;2.60;;;;;;;30.75;50.26;100920.59;1412596;101;21140;-85
2022/07/31 04:48:02;;;;;;;;;;;;;;;;;;;;;
2022/07/31 04:50:28;;;;;;;7.87;2.70;;;;;;;31.64;48.51;100922.30;1326164;107;21622;-88
2022/07/31 04:56:36;;;;;;;6.25;2.95;;;;;;;32.04;45.79;100912.61;1255294;111;21231;-88
2022/07/31 04:59:13;;;;;;;4.20;2.58;;;;;;;32.50;44.18;100908.38;1257489;112;21271;-90
2022/07/31 05:01:49;;;;;;;7.40;2.62;;;;;;;32.62;43.56;100908.55;1276253;112;21271;-88
2022/07/31 05:04:25;;;;;;;4.78;2.85;;;;;;;32.63;42.03;100907.34;1261578;112;21172;-88
2022/07/31 05:16:21;;;;;;;9.43;2.87;;;;;;;33.22;40.38;100909.50;1259634;111;21178;-89
2022/07/31 05:18:51;;;;;;;21.85;3.87;;;;;;;33.59;38.70;100908.89;1258625;112;21293;-88
2022/07/31 05:21:30;;;;;;;6.03;3.02;;;;;;;34.11;38.10;100909.47;1247682;113;21689;-88
2022/07/31 05:24:15;;;;;;;5.75;2.87;;;;;;;33.91;36.32;100902.23;1233446;114;21544;-88
2022/07/31 05:26:49;;;;;;;7.62;3.42;;;;;;;33.62;37.34;100905.28;1228037;116;21238;-87
2022/07/31 05:30:08;;;;;;;;;;;;;;;;;;;;;
2022/07/31 05:32:27;;;;;;;9.48;3.30;;;;;;;33.84;36.76;100900.30;1185689;119;21284;-87
2022/07/31 05:34:59;;;;;;;8.65;3.10;;;;;;;34.35;35.75;100895.83;1185617;120;21280;-86
2022/07/31 05:37:25;;;;;;;6.65;3.15;;;;;;;34.70;35.46;100892.46;1186101;120;21306;-88
2022/07/31 05:39:51;;;;;;;6.60;3.42;;;;;;;34.69;34.89;100890.88;1177131;119;21255;-86
2022/07/31 05:42:20;;;;;;;6.75;3.65;;;;;;;35.03;34.70;100895.64;1168167;121;21298;-86
2022/07/31 05:45:30;;;;;;;8.23;3.58;;;;;;;35.31;34.08;100898.69;1168826;122;21442;-94
2022/07/31 05:47:51;;;;;;;11.22;3.10;;;;;;;35.26;33.87;100890.74;1169670;119;21345;-88
2022/07/31 05:50:32;;;;;;;4.83;3.35;;;;;;;36.00;33.92;100889.36;1221858;111;21173;-86
2022/07/31 05:53:00;;;;;;;7.72;3.60;;;;;;;36.52;31.75;100875.42;1324787;106;21187;-89
2022/07/31 05:55:26;;;;;;;7.97;3.47;;;;;;;36.52;31.75;100875.42;1360570;104;21202;-91
2022/07/31 05:58:00;;;;;;;8.20;3.65;;;;;;;36.78;31.53;100880.70;1364441;105;21305;-89
2022/07/31 06:00:29;;;;;;;8.38;3.62;;;;;;;36.87;31.21;100881.52;1364075;105;21100;-90
2022/07/31 06:02:55;;;;;;;5.55;3.55;;;;;;;37.05;31.46;100883.34;1334086;105;21140;-92
2022/07/31 06:05:22;;;;;;;10.98;3.83;;;;;;;37.29;30.35;100886.18;1321181;108;21164;-91
2022/07/31 06:07:58;;;;;;;5.17;3.70;;;;;;;36.96;29.76;100890.93;1342614;103;21052;-90
2022/07/31 06:10:25;;;;;;;10.60;3.70;;;;;;;36.46;29.87;100892.56;1316714;107;21143;-87
2022/07/31 06:13:01;;;;;;;7.12;4.20;;;;;;;36.38;29.77;100893.30;1316004;109;21158;-90
2022/07/31 06:15:29;;;;;;;6.28;4.03;;;;;;;35.99;29.89;100889.80;1316656;106;21214;-87
2022/07/31 06:17:55;;;;;;;7.65;3.60;;;;;;;36.14;30.21;100884.92;1313984;109;21273;-90
2022/07/31 06:20:21;;;;;;;5.30;3.33;;;;;;;36.29;30.52;100887.47;1313996;109;21198;-90
2022/07/31 06:22:47;;;;;;;5.62;3.50;;;;;;;36.73;29.82;100888.22;1314269;109;21168;-86
2022/07/31 06:25:13;;;;;;;4.97;3.30;;;;;;;36.62;28.90;100888.44;1320080;106;21324;-88
2022/07/31 06:27:40;;;;;;;5.17;3.27;;;;;;;36.10;29.04;100886.23;1351398;106;21174;-87
2022/07/31 06:30:09;;;;;;;5.97;2.95;;;;;;;36.24;29.85;100881.76;1351093;106;21111;-86
2022/07/31 06:32:35;;;;;;;5.78;3.05;;;;;;;37.18;29.79;100879.23;1351346;106;21182;-87
2022/07/31 06:35:03;;;;;;;6.40;2.47;;;;;;;37.35;28.37;100874.42;1351311;106;22096;-87
2022/07/31 06:37:29;;;;;;;7.03;3.02;;;;;;;36.81;27.24;100877.80;1351219;106;21203;-88
2022/07/31 06:39:55;;;;;;;9.78;2.90;;;;;;;36.32;28.58;100883.80;1351334;106;21136;-87
2022/07/31 06:42:37;;;;;;;8.90;2.60;;;;;;;36.14;28.64;100877.91;1351383;106;21130;-92
2022/07/31 06:45:06;;;;;;;10.23;2.45;;;;;;;36.17;28.37;100876.27;1351256;103;21148;-88
2022/07/31 06:47:32;;;;;;;6.50;2.30;;;;;;;36.34;27.69;100882.15;1345576;106;21214;-86
2022/07/31 06:49:58;;;;;;;3.83;2.65;;;;;;;35.92;27.84;100885.13;1381808;102;21000;-86
2022/07/31 06:52:28;;;;;;;8.28;2.20;;;;;;;36.11;28.56;100874.56;1406884;102;21104;-89
2022/07/31 06:55:00;;;;;;;3.75;2.37;;;;;;;37.02;28.21;100880.00;1403610;102;21196;-91
2022/07/31 06:57:26;;;;;;;6.00;2.20;;;;;;;37.07;27.09;100867.46;1406620;101;21653;-88
2022/07/31 06:59:55;;;;;;;6.90;1.98;;;;;;;36.88;26.97;100878.88;1461581;97;21190;-89
2022/07/31 07:02:21;;;;;;;7.97;2.30;;;;;;;36.47;27.11;100875.27;1466154;96;21106;-85
2022/07/31 07:04:49;;;;;;;13.40;2.22;;;;;;;36.53;27.20;100869.38;1465968;97;21572;-87
2022/07/31 07:07:15;;;;;;;7.03;1.95;;;;;;;36.55;27.26;100866.12;1468739;95;21266;-87
2022/07/31 07:09:43;;;;;;;5.67;2.40;;;;;;;36.71;27.36;100861.98;1458027;97;21099;-89
2022/07/31 07:12:12;;;;;;;6.55;3.08;;;;;;;36.71;26.65;100854.97;1440373;98;21386;-86
2022/07/31 07:14:39;;;;;;;6.37;2.08;;;;;;;36.59;26.74;100853.61;1439868;98;21699;-89
2022/07/31 07:17:12;;;;;;;2.55;2.00;;;;;;;36.67;26.72;100852.04;1440067;98;21106;-90
2022/07/31 07:19:43;;;;;;;9.20;2.25;;;;;;;36.61;26.48;100855.97;1417242;101;21161;-92
2022/07/31 07:22:09;;;;;;;5.28;1.85;;;;;;;36.80;26.59;100852.97;1434934;99;21203;-89
2022/07/31 07:24:35;;;;;;;5.67;2.20;;;;;;;37.10;26.19;100844.10;1438039;99;21206;-88
2022/07/31 07:27:01;;;;;;;4.42;2.05;;;;;;;37.15;25.85;100845.78;1437760;99;21687;-85
2022/07/31 07:29:28;;;;;;;8.13;1.98;;;;;;;37.19;26.46;100841.47;1414332;101;21601;-90
2022/07/31 07:32:01;;;;;;;6.58;2.00;;;;;;;37.01;25.67;100839.88;1426112;100;21088;-90
2022/07/31 07:34:27;;;;;;;2.33;1.95;;;;;;;36.92;25.91;100843.86;1393018;101;21129;-89
2022/07/31 07:36:54;;;;;;;26.87;3.08;;;;;;;37.12;25.75;100849.44;1425672;100;21617;-90
2022/07/31 07:39:23;;;;;;;3.58;1.72;;;;;;;36.84;24.93;100857.27;1414223;100;21143;-89
2022/07/31 07:42:01;;;;;;;4.28;1.65;;;;;;;36.83;24.93;100853.50;1425213;100;22593;-88
2022/07/31 07:46:55;;;;;;;11.15;2.55;;;;;;;36.90;24.85;100851.93;1365571;105;21167;-87
2022/07/31 07:49:23;;;;;;;7.47;1.77;;;;;;;36.79;24.01;100841.54;1335690;107;22041;-89
2022/07/31 07:51:49;;;;;;;2.42;1.72;;;;;;;36.37;24.33;100846.81;1369082;103;20999;-86
2022/07/31 07:54:19;;;;;;;3.95;1.90;;;;;;;36.26;24.72;100843.42;1336075;107;21053;-87
2022/07/31 07:56:46;;;;;;;8.50;1.70;;;;;;;36.34;24.30;100837.23;1365920;105;21132;-91
2022/07/31 07:59:23;;;;;;;7.40;1.90;;;;;;;36.22;24.39;100844.11;1336246;107;21169;-91
2022/07/31 08:01:45;;;;;;;2.22;1.32;;;;;;;36.69;24.85;100834.94;1362467;105;21107;-90
2022/07/31 08:04:14;;;;;;;5.45;1.80;;;;;;;37.21;23.59;100828.56;1306596;109;21152;-90
2022/07/31 08:07:02;;;;;;;5.65;1.82;;;;;;;36.81;23.49;100825.05;1349370;105;21179;-91
2022/07/31 08:09:30;;;;;;;9.50;1.80;;;;;;;36.99;24.29;100819.80;1386945;102;21591;-90
2022/07/31 08:12:12;;;;;;;6.35;1.82;;;;;;;37.34;24.24;100811.78;1370991;104;21119;-92
2022/07/31 08:14:35;;;;;;;7.35;1.82;;;;;;;37.53;23.75;100816.36;1388832;103;21139;-92
2022/07/31 08:17:07;;;;;;;10.05;1.95;;;;;;;36.99;23.35;100814.80;1354338;104;21224;-89
2022/07/31 08:19:33;;;;;;;4.22;1.70;;;;;;;36.66;24.08;100816.14;1356833;105;21175;-84
2022/07/31 08:22:00;;;;;;;3.77;1.70;;;;;;;36.90;24.16;100806.97;1358394;105;21129;-87
2022/07/31 08:24:26;;;;;;;3.65;1.85;;;;;;;37.44;24.21;100804.30;1358367;105;21065;-85
2022/07/31 08:29:39;;;;;;;4.58;1.70;;;;;;;37.10;23.89;100799.13;1357985;105;21134;-84
2022/07/31 08:32:06;;;;;;;9.53;1.65;;;;;;;37.10;23.53;100809.75;1358407;105;21170;-85
2022/07/31 08:34:32;;;;;;;7.17;1.52;;;;;;;37.26;24.23;100799.12;1358757;105;21666;-85
2022/07/31 08:36:59;;;;;;;4.33;1.87;;;;;;;37.87;23.92;100810.24;1358498;104;21144;-84
2022/07/31 08:39:30;;;;;;;3.22;1.62;;;;;;;37.69;23.53;100806.50;1358399;105;21239;-84
2022/07/31 08:41:56;;;;;;;3.30;1.70;;;;;;;37.38;22.96;100798.41;1358156;105;21217;-86
2022/07/31 08:44:28;;;;;;;2.42;1.60;;;;;;;37.18;23.43;100792.91;1357657;104;21335;-91
2022/07/31 08:47:01;;;;;;;4.40;1.50;;;;;;;37.13;23.37;100780.77;1358289;105;21171;-88
2022/07/31 08:49:29;;;;;;;6.00;1.50;;;;;;;36.82;23.95;100781.67;1364201;104;21145;-82
2022/07/31 08:51:58;;;;;;;4.10;1.60;;;;;;;37.05;23.73;100789.19;1389337;102;21509;-82
2022/07/31 08:54:26;;;;;;;13.30;2.05;;;;;;;36.78;23.52;100788.00;1389523;101;21222;-80
2022/07/31 08:56:53;;;;;;;3.45;1.35;;;;;;;36.31;23.68;100783.98;1389511;101;21295;-81
2022/07/31 08:59:22;;;;;;;3.52;1.35;;;;;;;36.31;23.68;100783.98;1389394;101;21220;-81
2022/07/31 09:01:47;;;;;;;2.42;1.77;;;;;;;37.45;23.41;100755.28;1431144;99;21107;-82
2022/07/31 09:04:14;;;;;;;4.10;2.20;;;;;;;37.45;23.41;100755.28;1444609;99;21359;-82
2022/07/31 09:06:40;;;;;;;2.27;1.70;;;;;;;37.60;23.51;100772.59;1444842;99;21157;-85
2022/07/31 09:09:10;;;;;;;5.60;2.20;;;;;;;37.58;23.58;100768.02;1444328;98;22299;-83
2022/07/31 09:11:53;;;;;;;3.00;1.80;;;;;;;37.92;22.75;100766.88;1466699;97;21091;-83
2022/07/31 09:14:35;;;;;;;5.42;1.62;;;;;;;37.67;23.06;100746.45;1514617;93;21135;-83
2022/07/31 09:17:06;;;;;;;48.33;3.17;;;;;;;37.67;23.06;100746.45;1597165;89;21193;-85
2022/07/31 09:19:50;;;;;;;6.05;2.00;;;;;;;37.43;22.50;100773.20;1607966;89;21079;-83
2022/07/31 09:22:38;;;;;;;;;;;;;;;;;;;;;
2022/07/31 09:25:19;;;;;;;3.65;1.50;;;;;;;36.65;23.66;100761.80;1579434;90;21137;-83
2022/07/31 09:30:31;;;;;;;6.35;1.47;;;;;;;37.02;23.13;100750.11;1372331;103;21130;-86
2022/07/31 09:33:20;;;;;;;1.42;1.22;;;;;;;37.08;22.68;100751.78;1309149;109;21144;-83
2022/07/31 09:35:55;;;;;;;9.45;1.72;;;;;;;36.19;23.06;100755.95;1310326;107;21142;-85
2022/07/31 09:38:34;;;;;;;2.15;1.30;;;;;;;36.03;23.38;100753.82;1298612;107;21685;-84
2022/07/31 09:41:16;;;;;;;;;;;;;;;;;;;;;
2022/07/31 09:49:00;;;;;;;;;;;;;;;;;;;;;
2022/07/31 10:09:47;;;;;;;;;;;;;;;;;;;;;
2022/07/31 10:21:05;;;;;;;5.25;1.37;;;;;;;33.19;27.49;100723.94;1212559;117;21712;-85
2022/07/31 10:23:47;;;;;;;;;;;;;;;;;;;;;
2022/07/31 10:26:09;;;;;;;4.35;1.30;;;;;;;32.99;26.67;100719.51;1261333;112;21181;-84
2022/07/31 10:28:38;;;;;;;6.92;1.17;;;;;;;32.86;26.73;100715.60;1300902;108;21745;-84
2022/07/31 10:31:14;;;;;;;5.55;1.20;;;;;;;32.73;26.75;100718.06;1346365;103;21200;-84
2022/07/31 10:33:44;;;;;;;4.28;1.35;;;;;;;32.91;26.77;100709.56;1344914;106;21238;-86
2022/07/31 10:36:23;;;;;;;2.10;1.10;;;;;;;33.16;26.73;100702.42;1345341;106;22074;-85
2022/07/31 10:39:17;;;;;;;5.67;1.30;;;;;;;33.65;26.70;100706.55;1327691;106;21169;-85
2022/07/31 10:41:53;;;;;;;2.83;1.17;;;;;;;33.45;25.96;100697.97;1341643;105;21131;-84
2022/07/31 10:44:32;;;;;;;4.78;1.30;;;;;;;33.09;26.50;100699.70;1359246;104;21155;-84
2022/07/31 10:46:58;;;;;;;8.58;1.72;;;;;;;32.87;27.06;100695.45;1306430;108;21203;-85
2022/07/31 10:49:44;;;;;;;8.58;1.52;;;;;;;32.82;26.54;100681.31;1303169;108;21404;-84
2022/07/31 10:52:31;;;;;;;3.83;1.55;;;;;;;32.84;27.23;100694.27;1324785;107;21219;-83
2022/07/31 11:09:22;;;;;;;1.70;1.25;;;;;;;32.82;27.72;100672.94;1259278;110;21643;-83
2022/07/31 11:11:48;;;;;;;2.27;1.10;;;;;;;32.84;27.10;100669.14;1235703;114;21239;-84
2022/07/31 11:14:17;;;;;;;5.08;1.05;;;;;;;32.42;26.96;100671.61;1236616;115;21998;-87
2022/07/31 11:16:54;;;;;;;10.38;1.52;;;;;;;32.63;27.43;100657.55;1260128;111;21252;-86
2022/07/31 11:19:23;;;;;;;7.30;1.60;;;;;;;32.78;27.18;100665.20;1270632;112;22129;-84
2022/07/31 11:21:56;;;;;;;4.28;1.10;;;;;;;32.55;27.86;100660.19;1270220;111;21564;-86
2022/07/31 11:24:25;;;;;;;2.42;1.40;;;;;;;32.71;27.74;100657.69;1282541;109;21569;-86
2022/07/31 11:26:54;;;;;;;2.37;1.45;;;;;;;32.65;27.99;100662.12;1302815;109;21166;-84
2022/07/31 11:29:34;;;;;;;7.15;2.12;;;;;;;32.74;27.75;100655.47;1301280;109;21730;-85
2022/07/31 11:32:18;;;;;;;4.35;1.45;;;;;;;32.82;28.15;100649.21;1303087;109;21437;-84
2022/07/31 11:34:56;;;;;;;6.53;1.40;;;;;;;32.84;28.09;100641.23;1285573;108;21765;-83
2022/07/31 11:37:32;;;;;;;4.30;1.20;;;;;;;32.99;27.64;100643.32;1266938;110;21189;-82
2022/07/31 11:40:00;;;;;;;7.85;1.57;;;;;;;33.01;28.02;100628.35;1268183;110;21594;-82
2022/07/31 11:42:27;;;;;;;4.60;1.45;;;;;;;32.95;27.18;100630.77;1268442;110;21593;-82
2022/07/31 11:45:03;;;;;;;6.72;1.35;;;;;;;32.77;27.30;100633.71;1263041;111;21392;-82
2022/07/31 11:47:41;;;;;;;3.35;1.17;;;;;;;32.64;27.74;100634.61;1253980;112;21200;-82
2022/07/31 11:50:11;;;;;;;2.62;1.05;;;;;;;32.81;27.96;100632.28;1253560;113;21175;-81
2022/07/31 11:52:42;;;;;;;6.08;1.30;;;;;;;32.97;27.46;100624.75;1253189;113;21204;-82
2022/07/31 11:55:14;;;;;;;3.62;1.45;;;;;;;33.07;27.62;100622.51;1286175;109;21236;-81
2022/07/31 11:57:41;;;;;;;5.83;1.10;;;;;;;33.18;28.59;100618.19;1293618;109;21721;-81
2022/07/31 12:00:15;;;;;;;6.92;1.50;;;;;;;33.35;28.11;100613.02;1298715;109;21656;-80
2022/07/31 12:02:44;;;;;;;5.12;1.60;;;;;;;33.53;27.74;100615.64;1298369;109;21166;-83
2022/07/31 12:05:12;;;;;;;3.05;1.62;;;;;;;33.47;27.87;100611.70;1329541;105;21244;-82
2022/07/31 12:07:44;;;;;;;2.77;1.50;;;;;;;33.31;27.88;100615.69;1356313;104;21186;-83
2022/07/31 12:10:12;;;;;;;5.60;1.77;;;;;;;33.27;27.98;100624.11;1356214;104;21203;-82
2022/07/31 12:12:43;;;;;;;6.70;1.80;;;;;;;33.16;27.63;100617.84;1339037;106;21705;-84
2022/07/31 12:15:19;;;;;;;9.05;2.33;;;;;;;33.16;27.90;100613.64;1346211;104;21121;-81
2022/07/31 12:17:59;;;;;;;;;;;;;;;;;;;;;
2022/07/31 12:20:16;;;;;;;5.85;2.08;;;;;;;33.06;27.64;100613.13;1339939;106;21240;-82
2022/07/31 12:22:45;;;;;;;4.25;2.10;;;;;;;33.11;28.29;100608.50;1333385;107;21164;-82
2022/07/31 12:25:14;;;;;;;12.53;2.10;;;;;;;33.00;28.25;100607.20;1339969;106;21360;-82
2022/07/31 12:27:40;;;;;;;5.62;1.70;;;;;;;33.08;28.07;100615.70;1341141;106;21218;-82
2022/07/31 12:30:15;;;;;;;6.80;1.60;;;;;;;32.81;27.03;100609.95;1344706;104;21755;-81
2022/07/31 12:32:41;;;;;;;4.42;1.80;;;;;;;32.75;27.38;100604.01;1326418;108;21147;-80
2022/07/31 12:35:08;;;;;;;10.55;1.95;;;;;;;32.55;27.33;100607.95;1363182;103;21798;-81
2022/07/31 12:37:46;;;;;;;6.47;2.25;;;;;;;32.56;27.60;100597.00;1369838;103;21270;-80
2022/07/31 12:40:26;;;;;;;5.12;1.50;;;;;;;32.61;27.47;100600.55;1366904;103;21168;-80
2022/07/31 12:42:53;;;;;;;6.92;1.67;;;;;;;32.62;28.20;100594.56;1365080;103;21251;-80
2022/07/31 12:45:33;;;;;;;6.33;1.60;;;;;;;32.71;28.65;100593.49;1366363;103;21255;-81
2022/07/31 12:48:00;;;;;;;7.78;1.65;;;;;;;32.66;28.49;100597.32;1303556;109;21246;-81
2022/07/31 12:50:29;;;;;;;6.28;1.85;;;;;;;32.66;28.43;100586.16;1297486;110;22347;-81
2022/07/31 12:52:59;;;;;;;4.80;1.55;;;;;;;32.70;28.86;100581.33;1297273;109;21571;-81